createdAt,value
2017-11-23T00:00:16.570Z,10.44
2017-11-23T00:01:17.274Z,10.51
2017-11-23T00:02:17.981Z,10.41
2017-11-23T00:03:18.705Z,10.42
2017-11-23T00:04:19.422Z,10.56
2017-11-23T00:05:20.129Z,10.44
2017-11-23T00:06:20.835Z,10.44
2017-11-23T00:07:21.543Z,10.46
2017-11-23T00:08:22.248Z,10.49
2017-11-23T00:09:22.956Z,10.44
2017-11-23T00:10:23.675Z,10.40
2017-11-23T00:11:24.384Z,10.42
2017-11-23T00:12:25.091Z,10.41
2017-11-23T00:13:25.815Z,10.34
2017-11-23T00:14:26.533Z,10.34
2017-11-23T00:15:27.241Z,10.37
2017-11-23T00:16:27.947Z,10.38
2017-11-23T00:17:28.653Z,10.40
2017-11-23T00:18:29.374Z,10.38
2017-11-23T00:19:30.080Z,10.42
2017-11-23T00:20:30.793Z,10.42
2017-11-23T00:21:31.493Z,10.42
2017-11-23T00:22:32.198Z,10.34
2017-11-23T00:23:32.903Z,10.33
2017-11-23T00:24:33.629Z,10.38
2017-11-23T00:25:34.335Z,10.33
2017-11-23T00:26:35.040Z,10.20
2017-11-23T00:27:35.747Z,10.31
2017-11-23T00:28:36.453Z,10.34
2017-11-23T00:29:37.161Z,10.38
2017-11-23T00:30:37.884Z,10.28
2017-11-23T00:31:38.591Z,10.26
2017-11-23T00:32:39.301Z,10.26
2017-11-23T00:33:40.008Z,10.23
2017-11-23T00:34:40.729Z,10.19
2017-11-23T00:35:41.432Z,10.23
2017-11-23T00:36:42.140Z,10.17
2017-11-23T00:37:42.860Z,10.13
2017-11-23T00:38:43.568Z,10.20
2017-11-23T00:39:44.273Z,10.13
2017-11-23T00:40:44.980Z,10.22
2017-11-23T00:41:45.686Z,10.17
2017-11-23T00:42:46.394Z,10.22
2017-11-23T00:43:47.105Z,10.16
2017-11-23T00:44:47.808Z,10.26
2017-11-23T00:45:48.529Z,10.23
2017-11-23T00:46:49.251Z,10.19
2017-11-23T00:47:49.957Z,10.23
2017-11-23T00:48:50.664Z,10.12
2017-11-23T00:49:51.370Z,10.20
2017-11-23T00:50:52.076Z,10.12
2017-11-23T00:51:52.783Z,10.15
2017-11-23T00:52:53.487Z,10.16
2017-11-23T00:53:54.199Z,10.17
2017-11-23T00:54:54.903Z,10.19
2017-11-23T00:55:55.611Z,10.15
2017-11-23T00:56:56.332Z,10.16
2017-11-23T00:57:57.053Z,10.15
2017-11-23T00:58:57.771Z,10.23
2017-11-23T00:59:58.482Z,10.22
2017-11-23T01:00:59.189Z,10.23
2017-11-23T01:01:59.914Z,10.22
2017-11-23T01:03:00.632Z,10.19
2017-11-23T01:04:01.337Z,10.19
2017-11-23T01:05:02.043Z,10.22
2017-11-23T01:06:02.751Z,10.25
2017-11-23T01:07:03.457Z,10.30
2017-11-23T01:08:04.164Z,10.16
2017-11-23T01:09:04.872Z,10.28
2017-11-23T01:10:05.577Z,10.23
2017-11-23T01:11:06.300Z,10.22
2017-11-23T01:12:07.008Z,10.34
2017-11-23T01:13:07.714Z,10.34
2017-11-23T01:14:08.423Z,10.34
2017-11-23T01:15:09.128Z,10.31
2017-11-23T01:16:09.836Z,10.34
2017-11-23T01:17:10.541Z,10.33
2017-11-23T01:18:11.248Z,10.37
2017-11-23T01:19:11.955Z,10.44
2017-11-23T01:20:12.661Z,10.35
2017-11-23T01:21:13.367Z,10.44
2017-11-23T01:22:14.076Z,10.41
2017-11-23T01:23:14.781Z,10.38
2017-11-23T01:24:15.490Z,10.51
2017-11-23T01:25:16.195Z,10.42
2017-11-23T01:26:16.916Z,10.46
2017-11-23T01:27:17.632Z,10.49
2017-11-23T01:28:18.342Z,10.51
2017-11-23T01:29:19.064Z,10.60
2017-11-23T01:30:19.772Z,10.60
2017-11-23T01:31:20.482Z,10.53
2017-11-23T01:32:21.204Z,10.60
2017-11-23T01:33:21.909Z,10.54
2017-11-23T01:34:22.616Z,10.63
2017-11-23T01:35:23.338Z,10.54
2017-11-23T01:36:24.042Z,10.49
2017-11-23T01:37:24.749Z,10.59
2017-11-23T01:38:25.452Z,10.57
2017-11-23T01:39:26.160Z,10.51
2017-11-23T01:40:26.878Z,10.54
2017-11-23T01:41:27.584Z,10.56
2017-11-23T01:42:28.289Z,10.64
2017-11-23T01:43:28.992Z,10.75
2017-11-23T01:44:29.698Z,10.68
2017-11-23T01:45:30.417Z,10.74
2017-11-23T01:46:31.134Z,10.78
2017-11-23T01:47:31.837Z,10.68
2017-11-23T01:48:32.542Z,10.71
2017-11-23T01:49:33.247Z,10.74
2017-11-23T01:50:33.968Z,10.67
2017-11-23T01:51:34.669Z,10.63
2017-11-23T01:52:35.373Z,10.69
2017-11-23T01:53:36.089Z,10.63
2017-11-23T01:54:36.792Z,10.69
2017-11-23T01:55:37.495Z,10.74
2017-11-23T01:56:38.201Z,10.64
2017-11-23T01:57:38.917Z,10.71
2017-11-23T01:58:39.621Z,10.63
2017-11-23T01:59:40.325Z,10.67
2017-11-23T02:00:41.029Z,10.69
2017-11-23T02:01:41.733Z,10.67
2017-11-23T02:02:42.441Z,10.67
2017-11-23T02:03:43.145Z,10.68
2017-11-23T02:04:43.863Z,10.68
2017-11-23T02:05:44.568Z,10.76
2017-11-23T02:06:45.283Z,10.81
2017-11-23T02:07:46.004Z,10.76
2017-11-23T02:08:46.704Z,10.81
2017-11-23T02:09:47.408Z,10.75
2017-11-23T02:10:48.113Z,10.79
2017-11-23T02:11:48.818Z,10.86
2017-11-23T02:12:49.533Z,10.74
2017-11-23T02:13:50.248Z,10.78
2017-11-23T02:14:50.954Z,10.71
2017-11-23T02:15:51.657Z,10.64
2017-11-23T02:16:52.362Z,10.74
2017-11-23T02:17:53.067Z,10.64
2017-11-23T02:18:53.770Z,10.67
2017-11-23T02:19:54.488Z,10.81
2017-11-23T02:20:55.191Z,10.89
2017-11-23T02:21:55.906Z,10.79
2017-11-23T02:22:56.613Z,10.87
2017-11-23T02:23:57.315Z,10.86
2017-11-23T02:24:58.018Z,10.89
2017-11-23T02:25:58.724Z,10.90
2017-11-23T02:26:59.438Z,10.92
2017-11-23T02:28:00.156Z,10.84
2017-11-23T02:29:00.862Z,10.86
2017-11-23T02:30:01.569Z,10.82
2017-11-23T02:31:02.274Z,10.82
2017-11-23T02:32:02.984Z,10.89
2017-11-23T02:33:03.682Z,10.86
2017-11-23T02:34:04.387Z,10.79
2017-11-23T02:35:05.104Z,10.81
2017-11-23T02:36:05.809Z,10.92
2017-11-23T02:37:06.513Z,10.86
2017-11-23T02:38:07.218Z,11.02
2017-11-23T02:39:07.925Z,10.97
2017-11-23T02:40:08.640Z,10.89
2017-11-23T02:41:09.358Z,10.90
2017-11-23T02:42:10.062Z,10.93
2017-11-23T02:43:10.768Z,10.90
2017-11-23T02:44:11.473Z,11.05
2017-11-23T02:45:12.181Z,11.12
2017-11-23T02:46:12.887Z,11.14
2017-11-23T02:47:13.594Z,11.07
2017-11-23T02:48:14.299Z,11.07
2017-11-23T02:49:15.017Z,11.02
2017-11-23T02:50:15.711Z,11.07
2017-11-23T02:51:16.418Z,10.96
2017-11-23T02:52:17.121Z,11.05
2017-11-23T02:53:17.838Z,10.99
2017-11-23T02:54:18.556Z,11.04
2017-11-23T02:55:19.265Z,11.07
2017-11-23T02:56:19.958Z,11.12
2017-11-23T02:57:20.664Z,11.10
2017-11-23T02:58:21.371Z,11.12
2017-11-23T02:59:22.089Z,11.08
2017-11-23T03:00:22.806Z,11.14
2017-11-23T03:01:23.509Z,11.05
2017-11-23T03:02:24.214Z,11.02
2017-11-23T03:03:24.919Z,11.05
2017-11-23T03:04:25.623Z,10.92
2017-11-23T03:05:26.329Z,10.93
2017-11-23T03:06:27.036Z,10.93
2017-11-23T03:07:27.744Z,10.82
2017-11-23T03:08:28.457Z,10.79
2017-11-23T03:09:29.155Z,10.82
2017-11-23T03:10:29.862Z,10.84
2017-11-23T03:11:30.568Z,10.81
2017-11-23T03:12:31.292Z,10.79
2017-11-23T03:13:31.993Z,10.84
2017-11-23T03:14:32.701Z,10.76
2017-11-23T03:15:33.413Z,10.89
2017-11-23T03:16:34.117Z,10.86
2017-11-23T03:17:34.820Z,10.89
2017-11-23T03:18:35.525Z,10.76
2017-11-23T03:19:36.232Z,10.79
2017-11-23T03:20:36.949Z,10.71
2017-11-23T03:21:37.653Z,10.75
2017-11-23T03:22:38.359Z,10.82
2017-11-23T03:23:39.064Z,10.86
2017-11-23T03:24:39.770Z,10.87
2017-11-23T03:25:40.489Z,10.78
2017-11-23T03:26:41.194Z,10.81
2017-11-23T03:27:41.899Z,10.87
2017-11-23T03:28:42.602Z,10.87
2017-11-23T03:29:43.307Z,10.90
2017-11-23T03:30:44.034Z,10.76
2017-11-23T03:31:44.733Z,10.69
2017-11-23T03:32:45.432Z,10.90
2017-11-23T03:33:46.138Z,10.86
2017-11-23T03:34:46.845Z,10.89
2017-11-23T03:35:47.549Z,10.79
2017-11-23T03:36:48.267Z,10.87
2017-11-23T03:37:48.971Z,10.89
2017-11-23T03:38:49.678Z,10.89
2017-11-23T03:39:50.382Z,10.87
2017-11-23T03:40:51.088Z,10.89
2017-11-23T03:41:51.813Z,10.94
2017-11-23T03:42:52.517Z,10.93
2017-11-23T03:43:53.214Z,11.02
2017-11-23T03:44:53.919Z,11.07
2017-11-23T03:45:54.624Z,11.07
2017-11-23T03:46:55.330Z,11.04
2017-11-23T03:47:56.037Z,11.04
2017-11-23T03:48:56.741Z,11.08
2017-11-23T03:49:57.448Z,10.87
2017-11-23T03:50:58.154Z,10.96
2017-11-23T03:51:58.861Z,10.93
2017-11-23T03:52:59.581Z,11.10
2017-11-23T03:54:00.308Z,11.11
2017-11-23T03:55:01.001Z,11.07
2017-11-23T03:56:01.706Z,11.05
2017-11-23T03:57:02.409Z,11.11
2017-11-23T03:58:03.126Z,11.12
2017-11-23T03:59:03.832Z,11.05
2017-11-23T04:00:04.549Z,11.08
2017-11-23T04:01:05.253Z,11.08
2017-11-23T04:02:05.959Z,11.07
2017-11-23T04:03:06.663Z,11.05
2017-11-23T04:04:07.380Z,11.08
2017-11-23T04:05:08.097Z,11.00
2017-11-23T04:06:08.806Z,11.07
2017-11-23T04:07:09.520Z,11.04
2017-11-23T04:08:10.226Z,10.94
2017-11-23T04:09:10.942Z,11.02
2017-11-23T04:10:11.640Z,10.97
2017-11-23T04:11:12.347Z,11.10
2017-11-23T04:12:13.063Z,11.02
2017-11-23T04:13:13.766Z,11.00
2017-11-23T04:14:14.471Z,10.94
2017-11-23T04:15:15.177Z,11.02
2017-11-23T04:16:15.883Z,11.04
2017-11-23T04:17:16.591Z,11.08
2017-11-23T04:18:17.307Z,11.11
2017-11-23T04:19:18.027Z,11.05
2017-11-23T04:20:18.716Z,11.05
2017-11-23T04:21:19.422Z,11.02
2017-11-23T04:22:20.139Z,11.18
2017-11-23T04:23:20.843Z,11.10
2017-11-23T04:24:21.552Z,11.11
2017-11-23T04:25:22.253Z,11.15
2017-11-23T04:26:22.957Z,11.15
2017-11-23T04:27:23.667Z,11.27
2017-11-23T04:28:24.370Z,11.30
2017-11-23T04:29:25.075Z,11.35
2017-11-23T04:30:25.781Z,11.19
2017-11-23T04:31:26.487Z,11.26
2017-11-23T04:32:27.194Z,11.23
2017-11-23T04:33:27.898Z,11.18
2017-11-23T04:34:28.603Z,11.17
2017-11-23T04:35:29.332Z,11.17
2017-11-23T04:36:30.028Z,11.23
2017-11-23T04:37:30.734Z,11.14
2017-11-23T04:38:31.440Z,11.23
2017-11-23T04:39:32.146Z,11.23
2017-11-23T04:40:32.858Z,11.19
2017-11-23T04:41:33.560Z,11.23
2017-11-23T04:42:34.277Z,11.19
2017-11-23T04:43:34.984Z,11.18
2017-11-23T04:44:35.689Z,11.23
2017-11-23T04:45:36.396Z,11.23
2017-11-23T04:46:37.114Z,11.19
2017-11-23T04:47:37.821Z,11.29
2017-11-23T04:48:38.536Z,11.30
2017-11-23T04:49:39.250Z,11.23
2017-11-23T04:50:39.957Z,11.30
2017-11-23T04:51:40.661Z,11.35
2017-11-23T04:52:41.368Z,11.23
2017-11-23T04:53:42.074Z,11.32
2017-11-23T04:54:42.781Z,11.36
2017-11-23T04:55:43.490Z,11.35
2017-11-23T04:56:44.213Z,11.32
2017-11-23T04:57:44.924Z,11.40
2017-11-23T04:58:45.631Z,11.37
2017-11-23T04:59:46.337Z,11.36
2017-11-23T05:00:47.044Z,11.40
2017-11-23T05:01:47.748Z,11.45
2017-11-23T05:02:48.460Z,11.35
2017-11-23T05:03:49.172Z,11.40
2017-11-23T05:04:49.878Z,11.37
2017-11-23T05:05:50.585Z,11.36
2017-11-23T05:06:51.295Z,11.43
2017-11-23T05:07:52.012Z,11.50
2017-11-23T05:08:52.716Z,11.36
2017-11-23T05:09:53.422Z,11.43
2017-11-23T05:10:54.125Z,11.41
2017-11-23T05:11:54.831Z,11.52
2017-11-23T05:12:55.536Z,11.59
2017-11-23T05:13:56.241Z,11.54
2017-11-23T05:14:56.949Z,11.59
2017-11-23T05:15:57.667Z,11.63
2017-11-23T05:16:58.378Z,11.54
2017-11-23T05:17:59.078Z,11.55
2017-11-23T05:18:59.790Z,11.59
2017-11-23T05:20:00.490Z,11.60
2017-11-23T05:21:01.197Z,11.57
2017-11-23T05:22:01.904Z,11.69
2017-11-23T05:23:02.612Z,11.72
2017-11-23T05:24:03.328Z,11.70
2017-11-23T05:25:04.034Z,11.70
2017-11-23T05:26:04.752Z,11.78
2017-11-23T05:27:05.458Z,11.73
2017-11-23T05:28:06.165Z,11.78
2017-11-23T05:29:06.870Z,11.73
2017-11-23T05:30:07.576Z,11.84
2017-11-23T05:31:08.280Z,11.72
2017-11-23T05:32:08.984Z,11.86
2017-11-23T05:33:09.697Z,11.83
2017-11-23T05:34:10.396Z,11.80
2017-11-23T05:35:11.118Z,11.83
2017-11-23T05:36:11.808Z,11.83
2017-11-23T05:37:12.515Z,11.86
2017-11-23T05:38:13.223Z,11.78
2017-11-23T05:39:13.931Z,11.69
2017-11-23T05:40:14.641Z,11.81
2017-11-23T05:41:15.345Z,11.90
2017-11-23T05:42:16.050Z,11.91
2017-11-23T05:43:16.768Z,11.94
2017-11-23T05:44:17.472Z,12.04
2017-11-23T05:45:18.188Z,11.94
2017-11-23T05:46:18.894Z,12.09
2017-11-23T05:47:19.609Z,12.06
2017-11-23T05:48:20.315Z,12.03
2017-11-23T05:49:21.021Z,12.13
2017-11-23T05:50:21.723Z,12.18
2017-11-23T05:51:22.428Z,12.02
2017-11-23T05:52:23.133Z,12.06
2017-11-23T05:53:23.840Z,12.02
2017-11-23T05:54:24.546Z,12.10
2017-11-23T05:55:25.252Z,12.18
2017-11-23T05:56:25.960Z,12.21
2017-11-23T05:57:26.665Z,12.24
2017-11-23T05:58:27.373Z,12.21
2017-11-23T05:59:28.081Z,12.15
2017-11-23T06:00:28.788Z,12.20
2017-11-23T06:01:29.495Z,12.17
2017-11-23T06:02:30.202Z,12.25
2017-11-23T06:03:30.909Z,12.20
2017-11-23T06:04:31.613Z,12.20
2017-11-23T06:05:32.321Z,12.21
2017-11-23T06:06:33.028Z,12.21
2017-11-23T06:07:33.736Z,12.24
2017-11-23T06:08:34.441Z,12.22
2017-11-23T06:09:35.163Z,12.18
2017-11-23T06:10:35.879Z,12.21
2017-11-23T06:11:36.584Z,12.24
2017-11-23T06:12:37.299Z,12.25
2017-11-23T06:13:38.007Z,12.24
2017-11-23T06:14:38.712Z,12.18
2017-11-23T06:15:39.418Z,12.28
2017-11-23T06:16:40.135Z,12.20
2017-11-23T06:17:40.840Z,12.22
2017-11-23T06:18:41.546Z,12.25
2017-11-23T06:19:42.262Z,12.24
2017-11-23T06:20:42.969Z,12.36
2017-11-23T06:21:43.674Z,12.29
2017-11-23T06:22:44.382Z,12.37
2017-11-23T06:23:45.086Z,12.24
2017-11-23T06:24:45.791Z,12.24
2017-11-23T06:25:46.497Z,12.32
2017-11-23T06:26:47.204Z,12.31
2017-11-23T06:27:47.910Z,12.24
2017-11-23T06:28:48.614Z,12.32
2017-11-23T06:29:49.333Z,12.39
2017-11-23T06:30:50.039Z,12.36
2017-11-23T06:31:50.746Z,12.36
2017-11-23T06:32:51.452Z,12.39
2017-11-23T06:33:52.158Z,12.43
2017-11-23T06:34:52.863Z,12.36
2017-11-23T06:35:53.570Z,12.29
2017-11-23T06:36:54.273Z,12.40
2017-11-23T06:37:54.980Z,12.42
2017-11-23T06:38:55.685Z,12.49
2017-11-23T06:39:56.390Z,12.50
2017-11-23T06:40:57.101Z,12.45
2017-11-23T06:41:57.815Z,12.49
2017-11-23T06:42:58.519Z,12.43
2017-11-23T06:43:59.226Z,12.47
2017-11-23T06:44:59.930Z,12.47
2017-11-23T06:46:00.648Z,12.45
2017-11-23T06:47:01.369Z,12.50
2017-11-23T06:48:02.091Z,12.62
2017-11-23T06:49:02.791Z,12.61
2017-11-23T06:50:03.511Z,12.57
2017-11-23T06:51:04.230Z,12.67
2017-11-23T06:52:04.937Z,12.68
2017-11-23T06:53:05.644Z,12.75
2017-11-23T06:54:06.350Z,12.67
2017-11-23T06:55:07.057Z,12.72
2017-11-23T06:56:07.775Z,12.82
2017-11-23T06:57:08.470Z,12.65
2017-11-23T06:58:09.175Z,12.68
2017-11-23T06:59:09.894Z,12.68
2017-11-23T07:00:10.599Z,12.67
2017-11-23T07:01:11.308Z,12.78
2017-11-23T07:02:12.015Z,12.68
2017-11-23T07:03:12.736Z,12.79
2017-11-23T07:04:13.428Z,12.72
2017-11-23T07:05:14.135Z,12.72
2017-11-23T07:06:14.852Z,12.73
2017-11-23T07:07:15.561Z,12.75
2017-11-23T07:08:16.269Z,12.78
2017-11-23T07:09:16.976Z,12.76
2017-11-23T07:10:17.683Z,12.76
2017-11-23T07:11:18.392Z,12.76
2017-11-23T07:12:19.106Z,12.82
2017-11-23T07:13:19.808Z,12.78
2017-11-23T07:14:20.519Z,12.86
2017-11-23T07:15:21.227Z,12.83
2017-11-23T07:16:21.937Z,12.90
2017-11-23T07:17:22.645Z,12.95
2017-11-23T07:18:23.367Z,12.97
2017-11-23T07:19:24.089Z,12.93
2017-11-23T07:20:24.798Z,12.95
2017-11-23T07:21:25.518Z,12.93
2017-11-23T07:22:26.228Z,12.82
2017-11-23T07:23:26.937Z,12.90
2017-11-23T07:24:27.644Z,12.86
2017-11-23T07:25:28.354Z,12.97
2017-11-23T07:26:29.063Z,12.94
2017-11-23T07:27:29.774Z,12.94
2017-11-23T07:28:30.483Z,13.05
2017-11-23T07:29:31.204Z,13.08
2017-11-23T07:30:31.914Z,13.03
2017-11-23T07:31:32.626Z,13.09
2017-11-23T07:32:33.332Z,13.04
2017-11-23T07:33:34.041Z,13.00
2017-11-23T07:34:34.783Z,13.03
2017-11-23T07:35:35.487Z,12.95
2017-11-23T07:36:36.199Z,13.05
2017-11-23T07:37:36.910Z,13.01
2017-11-23T07:38:37.625Z,13.15
2017-11-23T07:39:38.331Z,13.12
2017-11-23T07:40:39.040Z,13.13
2017-11-23T07:41:39.747Z,13.12
2017-11-23T07:42:40.458Z,13.04
2017-11-23T07:43:41.167Z,13.08
2017-11-23T07:44:41.878Z,13.12
2017-11-23T07:45:42.587Z,13.23
2017-11-23T07:46:43.297Z,13.20
2017-11-23T07:47:44.009Z,13.28
2017-11-23T07:48:44.720Z,13.35
2017-11-23T07:49:45.441Z,13.38
2017-11-23T07:50:46.155Z,13.35
2017-11-23T07:51:46.866Z,13.38
2017-11-23T07:52:47.592Z,13.35
2017-11-23T07:53:48.313Z,13.25
2017-11-23T07:54:49.024Z,13.38
2017-11-23T07:55:49.748Z,13.33
2017-11-23T07:56:50.458Z,13.31
2017-11-23T07:57:51.168Z,13.25
2017-11-23T07:58:51.879Z,13.28
2017-11-23T07:59:52.589Z,13.25
2017-11-23T08:00:53.299Z,13.38
2017-11-23T08:01:54.008Z,13.35
2017-11-23T08:02:54.729Z,13.28
2017-11-23T08:03:55.437Z,13.33
2017-11-23T08:04:56.147Z,13.41
2017-11-23T08:05:56.857Z,13.44
2017-11-23T08:06:57.580Z,13.38
2017-11-23T08:07:58.302Z,13.49
2017-11-23T08:08:59.033Z,13.49
2017-11-23T08:09:59.750Z,13.65
2017-11-23T08:11:00.475Z,13.70
2017-11-23T08:12:01.181Z,13.77
2017-11-23T08:13:01.895Z,13.90
2017-11-23T08:14:02.607Z,13.95
2017-11-23T08:15:03.326Z,14.15
2017-11-23T08:16:04.049Z,14.23
2017-11-23T08:17:04.764Z,14.55
2017-11-23T08:18:05.476Z,14.65
2017-11-23T08:19:06.201Z,14.81
2017-11-23T08:20:06.933Z,15.10
2017-11-23T08:21:07.642Z,15.03
2017-11-23T08:22:08.367Z,15.11
2017-11-23T08:23:09.081Z,15.14
2017-11-23T08:24:09.795Z,15.39
2017-11-23T08:25:10.510Z,15.47
2017-11-23T08:26:11.224Z,15.44
2017-11-23T08:27:11.942Z,15.61
2017-11-23T08:28:12.669Z,15.46
2017-11-23T08:29:13.386Z,15.59
2017-11-23T08:30:14.100Z,15.49
2017-11-23T08:31:14.814Z,15.33
2017-11-23T08:32:15.530Z,15.04
2017-11-23T08:33:16.247Z,14.99
2017-11-23T08:34:16.975Z,14.94
2017-11-23T08:35:17.691Z,14.91
2017-11-23T08:36:18.416Z,14.96
2017-11-23T08:37:19.122Z,14.86
2017-11-23T08:38:19.835Z,14.89
2017-11-23T08:39:20.561Z,14.89
2017-11-23T08:40:21.278Z,15.18
2017-11-23T08:41:22.004Z,15.59
2017-11-23T08:42:22.717Z,15.75
2017-11-23T08:43:23.434Z,15.90
2017-11-23T08:44:24.397Z,15.65
2017-11-23T08:45:25.127Z,15.42
2017-11-23T08:46:25.856Z,15.35
2017-11-23T08:47:26.573Z,15.35
2017-11-23T08:48:27.289Z,15.33
2017-11-23T08:49:28.253Z,15.39
2017-11-23T08:50:28.968Z,15.59
2017-11-23T08:51:29.686Z,15.79
2017-11-23T08:52:30.414Z,15.97
2017-11-23T08:53:31.131Z,16.05
2017-11-23T08:54:31.864Z,16.53
2017-11-23T08:55:32.579Z,16.33
2017-11-23T08:56:33.303Z,16.26
2017-11-23T08:57:34.028Z,16.57
2017-11-23T08:58:34.746Z,16.83
2017-11-23T08:59:35.465Z,16.97
2017-11-23T09:00:36.184Z,16.79
2017-11-23T09:01:36.905Z,16.64
2017-11-23T09:02:37.624Z,16.83
2017-11-23T09:03:38.345Z,16.75
2017-11-23T09:04:39.063Z,16.64
2017-11-23T09:05:39.784Z,16.83
2017-11-23T09:06:40.509Z,16.84
2017-11-23T09:07:41.240Z,16.84
2017-11-23T09:08:41.960Z,16.54
2017-11-23T09:09:42.680Z,16.20
2017-11-23T09:10:43.399Z,16.01
2017-11-23T09:11:44.119Z,15.84
2017-11-23T09:12:44.836Z,15.80
2017-11-23T09:13:45.556Z,15.72
2017-11-23T09:14:46.271Z,15.64
2017-11-23T09:15:46.987Z,15.62
2017-11-23T09:16:47.704Z,15.58
2017-11-23T09:17:48.435Z,15.49
2017-11-23T09:18:49.149Z,15.35
2017-11-23T09:19:49.862Z,15.40
2017-11-23T09:20:50.575Z,15.21
2017-11-23T09:21:51.301Z,15.22
2017-11-23T09:22:52.016Z,15.24
2017-11-23T09:23:52.728Z,15.17
2017-11-23T09:24:53.692Z,15.09
2017-11-23T09:25:54.407Z,15.15
2017-11-23T09:26:55.132Z,15.06
2017-11-23T09:27:55.848Z,15.09
2017-11-23T09:28:56.562Z,15.02
2017-11-23T09:29:57.535Z,15.07
2017-11-23T09:30:58.237Z,14.99
2017-11-23T09:31:58.951Z,14.92
2017-11-23T09:32:59.663Z,14.86
2017-11-23T09:34:00.375Z,15.00
2017-11-23T09:35:01.090Z,14.94
2017-11-23T09:36:01.810Z,14.97
2017-11-23T09:37:02.524Z,14.86
2017-11-23T09:38:03.237Z,14.94
2017-11-23T09:39:03.949Z,14.91
2017-11-23T09:40:04.660Z,14.91
2017-11-23T09:41:05.371Z,14.89
2017-11-23T09:42:06.085Z,14.86
2017-11-23T09:43:06.795Z,14.88
2017-11-23T09:44:07.521Z,14.85
2017-11-23T09:45:08.230Z,14.88
2017-11-23T09:46:08.942Z,14.81
2017-11-23T09:47:09.651Z,14.85
2017-11-23T09:48:10.363Z,14.86
2017-11-23T09:49:11.078Z,14.86
2017-11-23T09:50:11.799Z,14.79
2017-11-23T09:51:12.509Z,14.81
2017-11-23T09:52:13.221Z,14.88
2017-11-23T09:53:13.935Z,14.78
2017-11-23T09:54:14.647Z,14.86
2017-11-23T09:55:15.373Z,14.79
2017-11-23T09:56:16.085Z,14.85
2017-11-23T09:57:16.796Z,14.77
2017-11-23T09:58:17.519Z,14.81
2017-11-23T09:59:18.230Z,14.88
2017-11-23T10:00:18.943Z,14.82
2017-11-23T10:01:19.656Z,14.84
2017-11-23T10:02:20.369Z,14.81
2017-11-23T10:03:21.089Z,14.82
2017-11-23T10:04:21.796Z,14.73
2017-11-23T10:05:22.507Z,14.78
2017-11-23T10:06:23.220Z,14.78
2017-11-23T10:07:23.937Z,14.82
2017-11-23T10:08:24.647Z,14.82
2017-11-23T10:09:25.353Z,14.78
2017-11-23T10:10:26.065Z,14.84
2017-11-23T10:11:26.778Z,14.81
2017-11-23T10:12:27.489Z,14.78
2017-11-23T10:13:28.212Z,14.85
2017-11-23T10:14:28.936Z,14.86
2017-11-23T10:15:29.658Z,14.84
2017-11-23T10:16:30.371Z,14.73
2017-11-23T10:17:31.083Z,14.70
2017-11-23T10:18:31.808Z,14.66
2017-11-23T10:19:32.522Z,14.73
2017-11-23T10:20:33.233Z,14.73
2017-11-23T10:21:33.945Z,14.65
2017-11-23T10:22:34.660Z,14.68
2017-11-23T10:23:35.366Z,14.69
2017-11-23T10:24:36.076Z,14.69
2017-11-23T10:25:36.787Z,14.65
2017-11-23T10:26:37.499Z,14.63
2017-11-23T10:27:38.219Z,14.62
2017-11-23T10:28:38.948Z,14.69
2017-11-23T10:29:39.664Z,14.62
2017-11-23T10:30:40.382Z,14.66
2017-11-23T10:31:41.095Z,14.60
2017-11-23T10:32:41.807Z,14.59
2017-11-23T10:33:42.517Z,14.60
2017-11-23T10:34:43.228Z,14.66
2017-11-23T10:35:43.956Z,14.59
2017-11-23T10:36:44.667Z,14.62
2017-11-23T10:37:45.378Z,14.66
2017-11-23T10:38:46.096Z,14.62
2017-11-23T10:39:46.800Z,14.60
2017-11-23T10:40:47.511Z,14.77
2017-11-23T10:41:48.222Z,14.73
2017-11-23T10:42:48.933Z,14.73
2017-11-23T10:43:49.653Z,14.78
2017-11-23T10:44:50.364Z,14.70
2017-11-23T10:45:51.074Z,14.85
2017-11-23T10:46:51.801Z,14.77
2017-11-23T10:47:52.512Z,14.81
2017-11-23T10:48:53.226Z,14.82
2017-11-23T10:49:53.941Z,14.82
2017-11-23T10:50:54.661Z,14.89
2017-11-23T10:51:55.374Z,14.82
2017-11-23T10:52:56.087Z,14.84
2017-11-23T10:53:56.798Z,14.88
2017-11-23T10:54:57.510Z,14.91
2017-11-23T10:55:58.228Z,14.88
2017-11-23T10:56:58.941Z,14.99
2017-11-23T10:57:59.654Z,15.00
2017-11-23T10:59:00.368Z,15.00
2017-11-23T11:00:01.090Z,14.89
2017-11-23T11:01:01.807Z,14.96
2017-11-23T11:02:02.519Z,14.96
2017-11-23T11:03:03.245Z,14.86
2017-11-23T11:04:03.966Z,14.82
2017-11-23T11:05:04.677Z,14.86
2017-11-23T11:06:05.384Z,14.79
2017-11-23T11:07:06.097Z,14.73
2017-11-23T11:08:06.810Z,14.63
2017-11-23T11:09:07.522Z,14.51
2017-11-23T11:10:08.232Z,14.53
2017-11-23T11:11:08.944Z,14.44
2017-11-23T11:12:09.655Z,14.41
2017-11-23T11:13:10.367Z,14.20
2017-11-23T11:14:11.079Z,14.25
2017-11-23T11:15:11.792Z,14.05
2017-11-23T11:16:12.505Z,14.00
2017-11-23T11:17:13.217Z,13.92
2017-11-23T11:18:13.927Z,13.81
2017-11-23T11:19:14.635Z,13.81
2017-11-23T11:20:15.346Z,13.72
2017-11-23T11:21:16.056Z,13.67
2017-11-23T11:22:16.766Z,13.60
2017-11-23T11:23:17.486Z,13.52
2017-11-23T11:24:18.197Z,13.46
2017-11-23T11:25:18.907Z,13.42
2017-11-23T11:26:19.620Z,13.39
2017-11-23T11:27:20.331Z,13.22
2017-11-23T11:28:21.043Z,13.13
2017-11-23T11:29:21.759Z,13.12
2017-11-23T11:30:22.469Z,13.03
2017-11-23T11:31:23.188Z,13.00
2017-11-23T11:32:23.894Z,12.98
2017-11-23T11:33:24.602Z,12.91
2017-11-23T11:34:25.324Z,12.93
2017-11-23T11:35:26.037Z,12.82
2017-11-23T11:36:26.762Z,12.87
2017-11-23T11:37:27.486Z,12.78
2017-11-23T11:38:28.209Z,12.75
2017-11-23T11:39:28.921Z,12.76
2017-11-23T11:40:29.640Z,12.72
2017-11-23T11:41:30.346Z,12.76
2017-11-23T11:42:31.058Z,12.76
2017-11-23T11:43:31.770Z,12.73
2017-11-23T11:44:32.482Z,12.76
2017-11-23T11:45:33.193Z,12.75
2017-11-23T11:46:33.905Z,12.87
2017-11-23T11:47:34.620Z,12.90
2017-11-23T11:48:35.351Z,12.85
2017-11-23T11:49:36.058Z,12.97
2017-11-23T11:50:36.771Z,12.95
2017-11-23T11:51:37.481Z,13.03
2017-11-23T11:52:38.194Z,13.08
2017-11-23T11:53:38.917Z,13.04
2017-11-23T11:54:39.636Z,13.00
2017-11-23T11:55:40.342Z,13.01
2017-11-23T11:56:41.057Z,13.08
2017-11-23T11:57:41.781Z,13.13
2017-11-23T11:58:42.494Z,13.15
2017-11-23T11:59:43.220Z,13.11
2017-11-23T12:00:43.943Z,13.13
2017-11-23T12:01:44.655Z,13.11
2017-11-23T12:02:45.369Z,13.23
2017-11-23T12:03:46.082Z,13.27
2017-11-23T12:04:46.808Z,13.28
2017-11-23T12:05:47.526Z,13.44
2017-11-23T12:06:48.246Z,13.42
2017-11-23T12:07:48.959Z,13.65
2017-11-23T12:08:49.690Z,13.86
2017-11-23T12:09:50.405Z,14.08
2017-11-23T12:10:51.120Z,14.08
2017-11-23T12:11:51.847Z,14.48
2017-11-23T12:12:52.564Z,14.94
2017-11-23T12:13:53.280Z,15.39
2017-11-23T12:14:53.996Z,15.57
2017-11-23T12:15:54.710Z,15.64
2017-11-23T12:16:55.437Z,15.46
2017-11-23T12:17:56.154Z,15.39
2017-11-23T12:18:56.868Z,15.11
2017-11-23T12:19:57.597Z,15.27
2017-11-23T12:20:58.312Z,15.24
2017-11-23T12:21:59.041Z,15.18
2017-11-23T12:22:59.755Z,14.92
2017-11-23T12:24:00.478Z,14.94
2017-11-23T12:25:01.185Z,14.97
2017-11-23T12:26:01.913Z,14.94
2017-11-23T12:27:02.640Z,14.94
2017-11-23T12:28:03.354Z,14.82
2017-11-23T12:29:04.067Z,14.78
2017-11-23T12:30:04.795Z,14.84
2017-11-23T12:31:05.519Z,14.78
2017-11-23T12:32:06.232Z,14.70
2017-11-23T12:33:06.959Z,14.65
2017-11-23T12:34:07.669Z,14.78
2017-11-23T12:35:08.380Z,14.72
2017-11-23T12:36:09.107Z,14.66
2017-11-23T12:37:09.818Z,14.63
2017-11-23T12:38:10.530Z,14.59
2017-11-23T12:39:11.254Z,14.60
2017-11-23T12:40:11.966Z,14.65
2017-11-23T12:41:12.681Z,14.68
2017-11-23T12:42:13.413Z,14.66
2017-11-23T12:43:14.130Z,14.63
2017-11-23T12:44:14.843Z,14.78
2017-11-23T12:45:15.568Z,14.84
2017-11-23T12:46:16.281Z,14.84
2017-11-23T12:47:16.998Z,14.84
2017-11-23T12:48:17.712Z,14.88
2017-11-23T12:49:18.437Z,14.89
2017-11-23T12:50:19.151Z,14.89
2017-11-23T12:51:19.887Z,14.89
2017-11-23T12:52:20.588Z,14.84
2017-11-23T12:53:21.303Z,14.92
2017-11-23T12:54:22.027Z,15.02
2017-11-23T12:55:22.743Z,14.97
2017-11-23T12:56:23.455Z,15.06
2017-11-23T12:57:24.167Z,15.09
2017-11-23T12:58:24.899Z,15.04
2017-11-23T12:59:25.606Z,15.19
2017-11-23T13:00:26.330Z,15.09
2017-11-23T13:01:27.043Z,15.10